sensor_id;sensor_type;location;lat;lon;timestamp;temperature;humidity
34698;DHT22;61391;50.922;6.928;2022-08-19T00:00:42;23.20;99.90
34698;DHT22;61391;50.922;6.928;2022-08-19T00:03:08;23.30;99.90
34698;DHT22;61391;50.922;6.928;2022-08-19T00:05:33;23.20;99.90
34698;DHT22;61391;50.922;6.928;2022-08-19T00:07:59;23.20;99.90
34698;DHT22;61391;50.922;6.928;2022-08-19T00:10:25;23.10;99.90
34698;DHT22;61391;50.922;6.928;2022-08-19T00:16:12;23.20;99.90
34698;DHT22;61391;50.922;6.928;2022-08-19T00:18:38;23.20;99.90
34698;DHT22;61391;50.922;6.928;2022-08-19T00:21:03;23.10;99.90
34698;DHT22;61391;50.922;6.928;2022-08-19T00:23:34;23.10;99.90
34698;DHT22;61391;50.922;6.928;2022-08-19T00:26:03;23.10;99.90
34698;DHT22;61391;50.922;6.928;2022-08-19T00:28:28;23.00;99.90
34698;DHT22;61391;50.922;6.928;2022-08-19T00:30:54;23.10;99.90
34698;DHT22;61391;50.922;6.928;2022-08-19T00:33:21;23.00;99.90
34698;DHT22;61391;50.922;6.928;2022-08-19T00:35:46;22.90;99.90
34698;DHT22;61391;50.922;6.928;2022-08-19T00:38:12;22.80;99.90
34698;DHT22;61391;50.922;6.928;2022-08-19T00:44:10;22.70;99.90
34698;DHT22;61391;50.922;6.928;2022-08-19T00:46:38;22.80;99.90
34698;DHT22;61391;50.922;6.928;2022-08-19T00:49:24;22.70;99.90
34698;DHT22;61391;50.922;6.928;2022-08-19T00:51:55;22.60;99.90
34698;DHT22;61391;50.922;6.928;2022-08-19T00:54:24;22.60;99.90
34698;DHT22;61391;50.922;6.928;2022-08-19T00:56:50;22.40;99.90
34698;DHT22;61391;50.922;6.928;2022-08-19T01:02:38;22.30;99.90
34698;DHT22;61391;50.922;6.928;2022-08-19T01:05:10;22.20;99.90
34698;DHT22;61391;50.922;6.928;2022-08-19T01:07:38;22.10;99.90
34698;DHT22;61391;50.922;6.928;2022-08-19T01:10:11;22.10;99.90
34698;DHT22;61391;50.922;6.928;2022-08-19T01:12:38;22.00;99.90
34698;DHT22;61391;50.922;6.928;2022-08-19T01:15:08;22.00;99.90
34698;DHT22;61391;50.922;6.928;2022-08-19T01:17:36;22.00;99.90
34698;DHT22;61391;50.922;6.928;2022-08-19T01:20:04;22.00;99.90
34698;DHT22;61391;50.922;6.928;2022-08-19T01:23:05;21.80;99.90
34698;DHT22;61391;50.922;6.928;2022-08-19T01:25:41;21.80;99.90
34698;DHT22;61391;50.922;6.928;2022-08-19T01:28:07;21.80;99.90
34698;DHT22;61391;50.922;6.928;2022-08-19T01:30:35;21.80;99.90
34698;DHT22;61391;50.922;6.928;2022-08-19T01:33:02;21.90;99.90
34698;DHT22;61391;50.922;6.928;2022-08-19T01:35:31;22.00;99.90
34698;DHT22;61391;50.922;6.928;2022-08-19T01:38:01;22.00;99.90
34698;DHT22;61391;50.922;6.928;2022-08-19T01:43:50;21.70;99.90
34698;DHT22;61391;50.922;6.928;2022-08-19T01:46:18;21.70;99.90
34698;DHT22;61391;50.922;6.928;2022-08-19T01:48:44;21.60;99.90
34698;DHT22;61391;50.922;6.928;2022-08-19T01:51:11;21.60;99.90
34698;DHT22;61391;50.922;6.928;2022-08-19T01:53:37;21.70;99.90
34698;DHT22;61391;50.922;6.928;2022-08-19T01:56:04;21.70;99.90
34698;DHT22;61391;50.922;6.928;2022-08-19T01:58:33;21.70;99.90
34698;DHT22;61391;50.922;6.928;2022-08-19T02:01:02;21.80;99.90
34698;DHT22;61391;50.922;6.928;2022-08-19T02:03:28;21.70;99.90
34698;DHT22;61391;50.922;6.928;2022-08-19T02:06:03;21.70;99.90
34698;DHT22;61391;50.922;6.928;2022-08-19T02:08:31;21.60;99.90
34698;DHT22;61391;50.922;6.928;2022-08-19T02:10:57;21.60;99.90
34698;DHT22;61391;50.922;6.928;2022-08-19T02:16:45;21.40;99.90
34698;DHT22;61391;50.922;6.928;2022-08-19T02:19:10;21.60;99.90
34698;DHT22;61391;50.922;6.928;2022-08-19T02:21:36;21.40;99.90
34698;DHT22;61391;50.922;6.928;2022-08-19T02:24:02;21.20;99.90
34698;DHT22;61391;50.922;6.928;2022-08-19T02:26:28;21.20;99.90
34698;DHT22;61391;50.922;6.928;2022-08-19T02:28:55;21.40;99.90
34698;DHT22;61391;50.922;6.928;2022-08-19T02:31:22;21.50;99.90
34698;DHT22;61391;50.922;6.928;2022-08-19T02:33:48;21.50;99.90
34698;DHT22;61391;50.922;6.928;2022-08-19T02:36:15;21.60;99.90
34698;DHT22;61391;50.922;6.928;2022-08-19T02:38:43;21.60;99.90
34698;DHT22;61391;50.922;6.928;2022-08-19T02:41:15;21.60;99.90
34698;DHT22;61391;50.922;6.928;2022-08-19T02:47:03;21.70;99.90
34698;DHT22;61391;50.922;6.928;2022-08-19T02:49:31;21.80;99.90
34698;DHT22;61391;50.922;6.928;2022-08-19T02:51:56;21.70;99.90
34698;DHT22;61391;50.922;6.928;2022-08-19T02:54:22;21.60;99.90
34698;DHT22;61391;50.922;6.928;2022-08-19T02:56:47;21.50;99.90
34698;DHT22;61391;50.922;6.928;2022-08-19T02:59:13;21.60;99.90
34698;DHT22;61391;50.922;6.928;2022-08-19T03:01:40;21.50;99.90
34698;DHT22;61391;50.922;6.928;2022-08-19T03:04:10;21.40;99.90
34698;DHT22;61391;50.922;6.928;2022-08-19T03:06:40;21.50;99.90
34698;DHT22;61391;50.922;6.928;2022-08-19T03:09:06;21.60;99.90
34698;DHT22;61391;50.922;6.928;2022-08-19T03:11:33;21.60;99.90
34698;DHT22;61391;50.922;6.928;2022-08-19T03:13:59;21.70;99.90
34698;DHT22;61391;50.922;6.928;2022-08-19T03:16:28;21.70;99.90
34698;DHT22;61391;50.922;6.928;2022-08-19T03:18:56;21.70;99.90
34698;DHT22;61391;50.922;6.928;2022-08-19T03:21:25;21.70;99.90
34698;DHT22;61391;50.922;6.928;2022-08-19T03:23:54;21.60;99.90
34698;DHT22;61391;50.922;6.928;2022-08-19T03:26:20;21.50;99.90
34698;DHT22;61391;50.922;6.928;2022-08-19T03:28:45;21.30;99.90
34698;DHT22;61391;50.922;6.928;2022-08-19T03:31:17;21.30;99.90
34698;DHT22;61391;50.922;6.928;2022-08-19T03:33:44;21.20;99.90
34698;DHT22;61391;50.922;6.928;2022-08-19T03:36:11;21.30;99.90
34698;DHT22;61391;50.922;6.928;2022-08-19T03:38:40;21.30;99.90
34698;DHT22;61391;50.922;6.928;2022-08-19T03:41:09;21.30;99.90
34698;DHT22;61391;50.922;6.928;2022-08-19T03:43:36;21.30;99.90
34698;DHT22;61391;50.922;6.928;2022-08-19T03:46:04;21.20;99.90
34698;DHT22;61391;50.922;6.928;2022-08-19T03:48:31;21.20;99.90
34698;DHT22;61391;50.922;6.928;2022-08-19T03:50:57;21.10;99.90
34698;DHT22;61391;50.922;6.928;2022-08-19T03:53:24;21.20;99.90
34698;DHT22;61391;50.922;6.928;2022-08-19T03:55:51;21.20;99.90
34698;DHT22;61391;50.922;6.928;2022-08-19T03:58:17;21.30;99.90
34698;DHT22;61391;50.922;6.928;2022-08-19T04:00:43;21.30;99.90
34698;DHT22;61391;50.922;6.928;2022-08-19T04:03:08;21.20;99.90
34698;DHT22;61391;50.922;6.928;2022-08-19T04:05:34;21.10;99.90
34698;DHT22;61391;50.922;6.928;2022-08-19T04:08:00;21.00;99.90
34698;DHT22;61391;50.922;6.928;2022-08-19T04:10:27;21.00;99.90
34698;DHT22;61391;50.922;6.928;2022-08-19T04:16:15;21.00;99.90
34698;DHT22;61391;50.922;6.928;2022-08-19T04:18:41;20.90;99.90
34698;DHT22;61391;50.922;6.928;2022-08-19T04:21:07;20.90;99.90
34698;DHT22;61391;50.922;6.928;2022-08-19T04:23:34;20.90;99.90
34698;DHT22;61391;50.922;6.928;2022-08-19T04:26:01;20.90;99.90
34698;DHT22;61391;50.922;6.928;2022-08-19T04:28:27;21.00;99.90
34698;DHT22;61391;50.922;6.928;2022-08-19T04:30:55;20.80;99.90
34698;DHT22;61391;50.922;6.928;2022-08-19T04:36:44;20.80;99.90
34698;DHT22;61391;50.922;6.928;2022-08-19T04:39:18;20.80;99.90
34698;DHT22;61391;50.922;6.928;2022-08-19T04:41:45;20.90;99.90
34698;DHT22;61391;50.922;6.928;2022-08-19T04:44:34;20.90;99.90
34698;DHT22;61391;50.922;6.928;2022-08-19T04:47:00;21.00;99.90
34698;DHT22;61391;50.922;6.928;2022-08-19T04:49:26;21.10;99.90
34698;DHT22;61391;50.922;6.928;2022-08-19T04:51:53;21.10;99.90
34698;DHT22;61391;50.922;6.928;2022-08-19T04:54:23;21.20;99.90
34698;DHT22;61391;50.922;6.928;2022-08-19T04:56:51;21.20;99.90
34698;DHT22;61391;50.922;6.928;2022-08-19T04:59:18;21.30;99.90
34698;DHT22;61391;50.922;6.928;2022-08-19T05:01:45;21.10;99.90
34698;DHT22;61391;50.922;6.928;2022-08-19T05:04:15;21.00;99.90
34698;DHT22;61391;50.922;6.928;2022-08-19T05:06:40;21.00;99.90
34698;DHT22;61391;50.922;6.928;2022-08-19T05:09:06;21.10;99.90
34698;DHT22;61391;50.922;6.928;2022-08-19T05:14:53;21.00;99.90
34698;DHT22;61391;50.922;6.928;2022-08-19T05:17:19;21.20;99.90
34698;DHT22;61391;50.922;6.928;2022-08-19T05:19:45;21.20;99.90
34698;DHT22;61391;50.922;6.928;2022-08-19T05:22:29;21.20;99.90
34698;DHT22;61391;50.922;6.928;2022-08-19T05:24:58;21.30;99.90
34698;DHT22;61391;50.922;6.928;2022-08-19T05:27:24;21.30;99.90
34698;DHT22;61391;50.922;6.928;2022-08-19T05:29:50;21.30;99.90
34698;DHT22;61391;50.922;6.928;2022-08-19T05:32:15;21.40;99.90
34698;DHT22;61391;50.922;6.928;2022-08-19T05:34:41;21.40;99.90
34698;DHT22;61391;50.922;6.928;2022-08-19T05:37:07;21.60;99.90
34698;DHT22;61391;50.922;6.928;2022-08-19T05:39:35;21.50;99.90
34698;DHT22;61391;50.922;6.928;2022-08-19T05:42:07;21.50;99.90
34698;DHT22;61391;50.922;6.928;2022-08-19T05:44:35;21.70;99.90
34698;DHT22;61391;50.922;6.928;2022-08-19T05:47:04;21.70;99.90
34698;DHT22;61391;50.922;6.928;2022-08-19T05:49:31;21.90;99.90
34698;DHT22;61391;50.922;6.928;2022-08-19T05:51:57;21.90;99.90
34698;DHT22;61391;50.922;6.928;2022-08-19T05:54:25;21.80;99.90
34698;DHT22;61391;50.922;6.928;2022-08-19T05:56:52;21.70;99.90
34698;DHT22;61391;50.922;6.928;2022-08-19T05:59:19;21.60;99.90
34698;DHT22;61391;50.922;6.928;2022-08-19T06:01:48;21.60;99.90
34698;DHT22;61391;50.922;6.928;2022-08-19T06:04:17;21.60;99.90
34698;DHT22;61391;50.922;6.928;2022-08-19T06:06:48;21.60;99.90
34698;DHT22;61391;50.922;6.928;2022-08-19T06:09:14;21.50;99.90
34698;DHT22;61391;50.922;6.928;2022-08-19T06:11:43;21.40;99.90
34698;DHT22;61391;50.922;6.928;2022-08-19T06:14:17;21.50;99.90
34698;DHT22;61391;50.922;6.928;2022-08-19T06:16:44;21.70;99.90
34698;DHT22;61391;50.922;6.928;2022-08-19T06:19:13;21.90;99.90
34698;DHT22;61391;50.922;6.928;2022-08-19T06:21:41;22.00;99.90
34698;DHT22;61391;50.922;6.928;2022-08-19T06:24:08;22.10;99.90
34698;DHT22;61391;50.922;6.928;2022-08-19T06:26:35;22.20;99.90
34698;DHT22;61391;50.922;6.928;2022-08-19T06:29:03;22.30;99.90
34698;DHT22;61391;50.922;6.928;2022-08-19T06:31:29;22.50;99.90
34698;DHT22;61391;50.922;6.928;2022-08-19T06:33:56;22.60;99.90
34698;DHT22;61391;50.922;6.928;2022-08-19T06:36:28;22.50;99.90
34698;DHT22;61391;50.922;6.928;2022-08-19T06:38:55;22.60;99.90
34698;DHT22;61391;50.922;6.928;2022-08-19T06:41:26;22.90;99.90
34698;DHT22;61391;50.922;6.928;2022-08-19T06:43:53;22.90;99.90
34698;DHT22;61391;50.922;6.928;2022-08-19T06:46:19;23.20;99.90
34698;DHT22;61391;50.922;6.928;2022-08-19T06:48:45;23.40;99.90
34698;DHT22;61391;50.922;6.928;2022-08-19T06:51:15;23.90;99.90
34698;DHT22;61391;50.922;6.928;2022-08-19T06:53:48;24.20;99.90
34698;DHT22;61391;50.922;6.928;2022-08-19T06:56:21;24.30;99.90
34698;DHT22;61391;50.922;6.928;2022-08-19T06:58:47;24.50;99.90
34698;DHT22;61391;50.922;6.928;2022-08-19T07:01:19;24.60;99.90
34698;DHT22;61391;50.922;6.928;2022-08-19T07:03:46;24.70;99.90
34698;DHT22;61391;50.922;6.928;2022-08-19T07:06:15;24.80;99.90
34698;DHT22;61391;50.922;6.928;2022-08-19T07:08:46;24.90;99.90
34698;DHT22;61391;50.922;6.928;2022-08-19T07:11:15;25.10;99.90
34698;DHT22;61391;50.922;6.928;2022-08-19T07:13:41;25.10;99.90
34698;DHT22;61391;50.922;6.928;2022-08-19T07:16:11;25.30;99.90
34698;DHT22;61391;50.922;6.928;2022-08-19T07:18:37;25.40;99.90
34698;DHT22;61391;50.922;6.928;2022-08-19T07:21:09;25.60;99.90
34698;DHT22;61391;50.922;6.928;2022-08-19T07:23:35;26.10;99.90
34698;DHT22;61391;50.922;6.928;2022-08-19T07:26:22;26.30;99.90
34698;DHT22;61391;50.922;6.928;2022-08-19T07:28:48;26.40;99.90
34698;DHT22;61391;50.922;6.928;2022-08-19T07:31:17;26.00;99.90
34698;DHT22;61391;50.922;6.928;2022-08-19T07:33:44;25.70;99.90
34698;DHT22;61391;50.922;6.928;2022-08-19T07:36:11;25.70;99.90
34698;DHT22;61391;50.922;6.928;2022-08-19T07:38:39;25.70;99.90
34698;DHT22;61391;50.922;6.928;2022-08-19T07:41:06;25.70;99.90
34698;DHT22;61391;50.922;6.928;2022-08-19T07:43:32;25.60;99.90
34698;DHT22;61391;50.922;6.928;2022-08-19T07:45:57;25.60;99.90
34698;DHT22;61391;50.922;6.928;2022-08-19T07:48:24;25.70;99.90
34698;DHT22;61391;50.922;6.928;2022-08-19T07:50:56;25.40;99.90
34698;DHT22;61391;50.922;6.928;2022-08-19T07:53:23;25.30;99.90
34698;DHT22;61391;50.922;6.928;2022-08-19T07:55:49;25.10;99.90
34698;DHT22;61391;50.922;6.928;2022-08-19T07:58:18;25.10;99.90
34698;DHT22;61391;50.922;6.928;2022-08-19T08:00:46;25.10;99.90
34698;DHT22;61391;50.922;6.928;2022-08-19T08:03:14;25.10;99.90
34698;DHT22;61391;50.922;6.928;2022-08-19T08:05:40;25.20;99.90
34698;DHT22;61391;50.922;6.928;2022-08-19T08:08:25;25.20;99.90
34698;DHT22;61391;50.922;6.928;2022-08-19T08:10:56;25.20;99.90
34698;DHT22;61391;50.922;6.928;2022-08-19T08:13:23;25.30;99.90
34698;DHT22;61391;50.922;6.928;2022-08-19T08:15:49;25.20;99.90
34698;DHT22;61391;50.922;6.928;2022-08-19T08:18:15;25.40;99.90
34698;DHT22;61391;50.922;6.928;2022-08-19T08:20:40;25.60;99.90
34698;DHT22;61391;50.922;6.928;2022-08-19T08:23:06;26.00;99.90
34698;DHT22;61391;50.922;6.928;2022-08-19T08:25:55;26.40;99.90
34698;DHT22;61391;50.922;6.928;2022-08-19T08:28:22;26.60;99.90
34698;DHT22;61391;50.922;6.928;2022-08-19T08:30:49;26.90;99.90
34698;DHT22;61391;50.922;6.928;2022-08-19T08:33:23;27.00;99.90
34698;DHT22;61391;50.922;6.928;2022-08-19T08:35:49;27.10;99.90
34698;DHT22;61391;50.922;6.928;2022-08-19T08:38:15;27.20;99.90
34698;DHT22;61391;50.922;6.928;2022-08-19T08:50:59;28.00;99.90
34698;DHT22;61391;50.922;6.928;2022-08-19T08:53:26;27.90;99.90
34698;DHT22;61391;50.922;6.928;2022-08-19T08:55:52;28.00;99.90
34698;DHT22;61391;50.922;6.928;2022-08-19T08:58:29;28.10;99.90
34698;DHT22;61391;50.922;6.928;2022-08-19T09:00:56;28.60;99.90
34698;DHT22;61391;50.922;6.928;2022-08-19T09:03:25;29.30;99.90
34698;DHT22;61391;50.922;6.928;2022-08-19T09:11:08;30.40;99.90
34698;DHT22;61391;50.922;6.928;2022-08-19T09:16:22;31.20;99.90
34698;DHT22;61391;50.922;6.928;2022-08-19T09:18:55;31.80;99.90
34698;DHT22;61391;50.922;6.928;2022-08-19T09:21:23;32.30;99.10
34698;DHT22;61391;50.922;6.928;2022-08-19T09:23:51;32.70;96.70
34698;DHT22;61391;50.922;6.928;2022-08-19T09:26:19;33.60;95.90
34698;DHT22;61391;50.922;6.928;2022-08-19T09:28:46;33.40;95.00
34698;DHT22;61391;50.922;6.928;2022-08-19T09:31:22;33.30;94.00
34698;DHT22;61391;50.922;6.928;2022-08-19T09:33:48;33.30;93.20
34698;DHT22;61391;50.922;6.928;2022-08-19T09:36:16;33.20;93.00
34698;DHT22;61391;50.922;6.928;2022-08-19T09:38:42;33.50;92.50
34698;DHT22;61391;50.922;6.928;2022-08-19T09:41:11;34.00;91.80
34698;DHT22;61391;50.922;6.928;2022-08-19T09:43:37;34.60;90.90
34698;DHT22;61391;50.922;6.928;2022-08-19T09:46:04;34.80;90.80
34698;DHT22;61391;50.922;6.928;2022-08-19T09:48:32;35.40;90.40
34698;DHT22;61391;50.922;6.928;2022-08-19T09:51:12;35.80;87.60
34698;DHT22;61391;50.922;6.928;2022-08-19T09:53:41;35.50;86.40
34698;DHT22;61391;50.922;6.928;2022-08-19T09:56:07;35.40;85.60
34698;DHT22;61391;50.922;6.928;2022-08-19T09:58:33;35.10;85.10
34698;DHT22;61391;50.922;6.928;2022-08-19T10:01:00;35.20;85.70
34698;DHT22;61391;50.922;6.928;2022-08-19T10:03:27;35.00;84.40
34698;DHT22;61391;50.922;6.928;2022-08-19T10:05:54;35.10;85.10
34698;DHT22;61391;50.922;6.928;2022-08-19T10:08:24;35.20;84.00
34698;DHT22;61391;50.922;6.928;2022-08-19T10:14:15;36.20;81.70
34698;DHT22;61391;50.922;6.928;2022-08-19T10:16:42;36.30;80.90
34698;DHT22;61391;50.922;6.928;2022-08-19T10:19:08;36.10;80.70
34698;DHT22;61391;50.922;6.928;2022-08-19T10:21:34;36.20;80.70
34698;DHT22;61391;50.922;6.928;2022-08-19T10:24:03;36.10;79.60
34698;DHT22;61391;50.922;6.928;2022-08-19T10:29:51;34.40;82.70
34698;DHT22;61391;50.922;6.928;2022-08-19T10:32:17;34.50;83.60
34698;DHT22;61391;50.922;6.928;2022-08-19T10:35:15;34.60;83.10
34698;DHT22;61391;50.922;6.928;2022-08-19T10:37:40;35.40;82.50
34698;DHT22;61391;50.922;6.928;2022-08-19T10:40:07;35.90;80.40
34698;DHT22;61391;50.922;6.928;2022-08-19T10:42:34;35.70;79.50
34698;DHT22;61391;50.922;6.928;2022-08-19T10:45:01;35.20;80.40
34698;DHT22;61391;50.922;6.928;2022-08-19T10:47:27;34.60;81.00
34698;DHT22;61391;50.922;6.928;2022-08-19T10:49:53;34.20;82.00
34698;DHT22;61391;50.922;6.928;2022-08-19T10:52:47;34.20;82.30
34698;DHT22;61391;50.922;6.928;2022-08-19T10:55:13;34.80;81.70
34698;DHT22;61391;50.922;6.928;2022-08-19T10:57:57;34.60;81.40
34698;DHT22;61391;50.922;6.928;2022-08-19T11:00:24;33.90;83.10
34698;DHT22;61391;50.922;6.928;2022-08-19T11:02:50;34.10;83.90
34698;DHT22;61391;50.922;6.928;2022-08-19T11:05:16;34.40;83.00
34698;DHT22;61391;50.922;6.928;2022-08-19T11:07:43;34.10;84.40
34698;DHT22;61391;50.922;6.928;2022-08-19T11:10:11;33.50;85.90
34698;DHT22;61391;50.922;6.928;2022-08-19T11:12:38;34.00;84.90
34698;DHT22;61391;50.922;6.928;2022-08-19T11:15:09;33.50;85.60
34698;DHT22;61391;50.922;6.928;2022-08-19T11:17:37;33.10;85.80
34698;DHT22;61391;50.922;6.928;2022-08-19T11:20:06;33.30;85.50
34698;DHT22;61391;50.922;6.928;2022-08-19T11:22:32;34.10;84.70
34698;DHT22;61391;50.922;6.928;2022-08-19T11:24:58;34.60;81.90
34698;DHT22;61391;50.922;6.928;2022-08-19T11:27:23;33.80;82.70
34698;DHT22;61391;50.922;6.928;2022-08-19T11:29:49;33.20;83.10
34698;DHT22;61391;50.922;6.928;2022-08-19T11:32:14;33.40;83.00
34698;DHT22;61391;50.922;6.928;2022-08-19T11:34:41;33.50;82.40
34698;DHT22;61391;50.922;6.928;2022-08-19T11:37:06;32.70;84.10
34698;DHT22;61391;50.922;6.928;2022-08-19T11:39:35;31.80;86.60
34698;DHT22;61391;50.922;6.928;2022-08-19T11:42:03;31.40;88.70
34698;DHT22;61391;50.922;6.928;2022-08-19T11:44:49;31.40;88.30
34698;DHT22;61391;50.922;6.928;2022-08-19T11:47:15;31.30;88.20
34698;DHT22;61391;50.922;6.928;2022-08-19T11:49:40;31.30;87.90
34698;DHT22;61391;50.922;6.928;2022-08-19T11:52:06;31.30;87.60
34698;DHT22;61391;50.922;6.928;2022-08-19T11:54:32;31.30;88.30
34698;DHT22;61391;50.922;6.928;2022-08-19T11:56:58;31.10;88.30
34698;DHT22;61391;50.922;6.928;2022-08-19T11:59:24;31.00;89.20
34698;DHT22;61391;50.922;6.928;2022-08-19T12:01:49;31.10;89.20
34698;DHT22;61391;50.922;6.928;2022-08-19T12:04:15;30.80;88.70
34698;DHT22;61391;50.922;6.928;2022-08-19T12:06:41;30.40;90.10
34698;DHT22;61391;50.922;6.928;2022-08-19T12:09:08;30.10;90.50
34698;DHT22;61391;50.922;6.928;2022-08-19T12:11:35;30.10;90.50
34698;DHT22;61391;50.922;6.928;2022-08-19T12:14:02;30.20;91.40
34698;DHT22;61391;50.922;6.928;2022-08-19T12:16:29;30.20;90.70
34698;DHT22;61391;50.922;6.928;2022-08-19T12:18:56;30.40;90.50
34698;DHT22;61391;50.922;6.928;2022-08-19T12:21:25;30.50;90.60
34698;DHT22;61391;50.922;6.928;2022-08-19T12:23:54;30.60;90.50
34698;DHT22;61391;50.922;6.928;2022-08-19T12:26:20;30.80;90.20
34698;DHT22;61391;50.922;6.928;2022-08-19T12:28:46;31.00;89.00
34698;DHT22;61391;50.922;6.928;2022-08-19T12:31:12;31.10;87.00
34698;DHT22;61391;50.922;6.928;2022-08-19T12:33:39;31.10;86.90
34698;DHT22;61391;50.922;6.928;2022-08-19T12:36:06;30.90;87.90
34698;DHT22;61391;50.922;6.928;2022-08-19T12:38:33;30.90;87.60
34698;DHT22;61391;50.922;6.928;2022-08-19T12:41:00;30.80;86.70
34698;DHT22;61391;50.922;6.928;2022-08-19T12:43:26;30.70;86.90
34698;DHT22;61391;50.922;6.928;2022-08-19T12:45:52;30.80;88.40
34698;DHT22;61391;50.922;6.928;2022-08-19T12:48:17;30.70;89.80
34698;DHT22;61391;50.922;6.928;2022-08-19T12:50:44;30.60;88.20
34698;DHT22;61391;50.922;6.928;2022-08-19T12:53:13;30.60;89.20
34698;DHT22;61391;50.922;6.928;2022-08-19T12:55:40;30.70;87.50
34698;DHT22;61391;50.922;6.928;2022-08-19T12:58:05;30.80;86.90
34698;DHT22;61391;50.922;6.928;2022-08-19T13:00:31;30.70;86.50
34698;DHT22;61391;50.922;6.928;2022-08-19T13:02:59;30.60;87.70
34698;DHT22;61391;50.922;6.928;2022-08-19T13:05:32;30.40;88.80
34698;DHT22;61391;50.922;6.928;2022-08-19T13:07:59;30.40;88.80
34698;DHT22;61391;50.922;6.928;2022-08-19T13:10:31;30.30;90.10
34698;DHT22;61391;50.922;6.928;2022-08-19T13:13:00;30.30;90.70
34698;DHT22;61391;50.922;6.928;2022-08-19T13:15:28;30.30;89.40
34698;DHT22;61391;50.922;6.928;2022-08-19T13:17:56;30.30;87.90
34698;DHT22;61391;50.922;6.928;2022-08-19T13:20:22;30.40;87.90
34698;DHT22;61391;50.922;6.928;2022-08-19T13:22:48;30.40;86.10
34698;DHT22;61391;50.922;6.928;2022-08-19T13:25:15;30.50;86.10
34698;DHT22;61391;50.922;6.928;2022-08-19T13:27:43;30.30;86.00
34698;DHT22;61391;50.922;6.928;2022-08-19T13:30:10;30.00;85.80
34698;DHT22;61391;50.922;6.928;2022-08-19T13:32:55;29.90;85.90
34698;DHT22;61391;50.922;6.928;2022-08-19T13:35:44;29.90;87.10
34698;DHT22;61391;50.922;6.928;2022-08-19T13:38:12;30.10;86.40
34698;DHT22;61391;50.922;6.928;2022-08-19T13:40:39;30.00;85.40
34698;DHT22;61391;50.922;6.928;2022-08-19T13:43:05;29.90;85.60
34698;DHT22;61391;50.922;6.928;2022-08-19T13:45:32;29.80;85.40
34698;DHT22;61391;50.922;6.928;2022-08-19T13:48:03;29.70;84.20
34698;DHT22;61391;50.922;6.928;2022-08-19T13:50:32;29.70;84.60
34698;DHT22;61391;50.922;6.928;2022-08-19T13:52:58;29.80;84.70
34698;DHT22;61391;50.922;6.928;2022-08-19T13:55:25;29.70;84.70
34698;DHT22;61391;50.922;6.928;2022-08-19T13:57:53;29.50;85.90
34698;DHT22;61391;50.922;6.928;2022-08-19T14:00:19;29.60;85.50
34698;DHT22;61391;50.922;6.928;2022-08-19T14:02:46;29.70;84.70
34698;DHT22;61391;50.922;6.928;2022-08-19T14:05:15;29.80;85.00
34698;DHT22;61391;50.922;6.928;2022-08-19T14:07:41;29.50;86.00
34698;DHT22;61391;50.922;6.928;2022-08-19T14:10:09;29.50;87.90
34698;DHT22;61391;50.922;6.928;2022-08-19T14:12:35;29.60;85.60
34698;DHT22;61391;50.922;6.928;2022-08-19T14:15:01;29.60;82.80
34698;DHT22;61391;50.922;6.928;2022-08-19T14:17:28;29.70;84.50
34698;DHT22;61391;50.922;6.928;2022-08-19T14:20:01;29.60;85.70
34698;DHT22;61391;50.922;6.928;2022-08-19T14:22:29;29.60;87.10
34698;DHT22;61391;50.922;6.928;2022-08-19T14:24:56;29.60;87.50
34698;DHT22;61391;50.922;6.928;2022-08-19T14:27:22;29.70;86.90
34698;DHT22;61391;50.922;6.928;2022-08-19T14:29:49;29.60;86.30
34698;DHT22;61391;50.922;6.928;2022-08-19T14:32:14;29.70;86.40
34698;DHT22;61391;50.922;6.928;2022-08-19T14:34:40;29.60;87.00
34698;DHT22;61391;50.922;6.928;2022-08-19T14:37:06;29.40;88.00
34698;DHT22;61391;50.922;6.928;2022-08-19T14:39:31;29.50;87.70
34698;DHT22;61391;50.922;6.928;2022-08-19T14:45:19;29.80;86.80
34698;DHT22;61391;50.922;6.928;2022-08-19T14:47:44;29.90;87.40
34698;DHT22;61391;50.922;6.928;2022-08-19T14:50:11;29.70;87.20
34698;DHT22;61391;50.922;6.928;2022-08-19T14:52:37;29.70;87.90
34698;DHT22;61391;50.922;6.928;2022-08-19T14:55:03;29.70;86.30
34698;DHT22;61391;50.922;6.928;2022-08-19T14:57:29;29.70;85.90
34698;DHT22;61391;50.922;6.928;2022-08-19T14:59:55;29.50;84.10
34698;DHT22;61391;50.922;6.928;2022-08-19T15:02:22;29.50;83.40
34698;DHT22;61391;50.922;6.928;2022-08-19T15:04:48;29.50;83.90
34698;DHT22;61391;50.922;6.928;2022-08-19T15:10:37;29.30;85.40
34698;DHT22;61391;50.922;6.928;2022-08-19T15:13:03;29.20;85.00
34698;DHT22;61391;50.922;6.928;2022-08-19T15:15:29;29.20;84.60
34698;DHT22;61391;50.922;6.928;2022-08-19T15:17:54;29.20;84.10
34698;DHT22;61391;50.922;6.928;2022-08-19T15:20:21;29.20;82.90
34698;DHT22;61391;50.922;6.928;2022-08-19T15:22:48;29.00;83.70
34698;DHT22;61391;50.922;6.928;2022-08-19T15:25:15;28.90;84.20
34698;DHT22;61391;50.922;6.928;2022-08-19T15:28:13;28.90;84.40
34698;DHT22;61391;50.922;6.928;2022-08-19T15:30:41;28.90;85.30
34698;DHT22;61391;50.922;6.928;2022-08-19T15:33:10;29.00;88.00
34698;DHT22;61391;50.922;6.928;2022-08-19T15:35:38;29.00;85.10
34698;DHT22;61391;50.922;6.928;2022-08-19T15:38:05;29.10;84.80
34698;DHT22;61391;50.922;6.928;2022-08-19T15:40:32;29.10;84.70
34698;DHT22;61391;50.922;6.928;2022-08-19T15:42:57;29.10;86.10
34698;DHT22;61391;50.922;6.928;2022-08-19T15:45:23;29.10;86.60
34698;DHT22;61391;50.922;6.928;2022-08-19T15:47:53;29.20;86.60
34698;DHT22;61391;50.922;6.928;2022-08-19T15:50:19;29.00;85.70
34698;DHT22;61391;50.922;6.928;2022-08-19T15:52:49;28.90;86.40
34698;DHT22;61391;50.922;6.928;2022-08-19T15:55:43;28.80;87.10
34698;DHT22;61391;50.922;6.928;2022-08-19T16:01:31;28.70;88.90
34698;DHT22;61391;50.922;6.928;2022-08-19T16:04:15;28.70;90.00
34698;DHT22;61391;50.922;6.928;2022-08-19T16:07:00;28.80;90.20
34698;DHT22;61391;50.922;6.928;2022-08-19T16:12:49;28.80;90.10
34698;DHT22;61391;50.922;6.928;2022-08-19T16:15:15;28.70;90.70
34698;DHT22;61391;50.922;6.928;2022-08-19T16:21:05;28.60;91.00
34698;DHT22;61391;50.922;6.928;2022-08-19T16:23:33;28.70;91.20
34698;DHT22;61391;50.922;6.928;2022-08-19T16:25:59;28.60;91.30
34698;DHT22;61391;50.922;6.928;2022-08-19T16:28:25;28.50;91.50
34698;DHT22;61391;50.922;6.928;2022-08-19T16:30:51;28.50;91.50
34698;DHT22;61391;50.922;6.928;2022-08-19T16:33:16;28.50;91.40
34698;DHT22;61391;50.922;6.928;2022-08-19T16:39:19;28.30;92.40
34698;DHT22;61391;50.922;6.928;2022-08-19T16:41:45;28.50;92.50
34698;DHT22;61391;50.922;6.928;2022-08-19T16:47:33;28.30;92.90
34698;DHT22;61391;50.922;6.928;2022-08-19T16:49:59;28.40;92.40
34698;DHT22;61391;50.922;6.928;2022-08-19T16:52:25;28.30;92.30
34698;DHT22;61391;50.922;6.928;2022-08-19T16:54:51;28.20;93.10